Time;durP1;ratioP1;P1;durP2;ratioP2;P2;SDS_P1;SDS_P2;PMS_P1;PMS_P2;Temp;Humidity;BMP_temperature;BMP_pressure;BME280_temperature;BME280_humidity;BME280_pressure;Samples;Min_cycle;Max_cycle;Signal;HPM_P1;HPM_P2
2023/03/12 00:00:10;;;;;;;4.70;1.70;;;0.70;99.90;;;;;;5057273;28;20195;-63
2023/03/12 00:02:35;;;;;;;3.77;1.63;;;0.70;99.90;;;;;;5038173;28;20215;-64
2023/03/12 00:05:04;;;;;;;4.83;1.20;;;0.70;99.90;;;;;;5056887;28;20548;-64
2023/03/12 00:07:29;;;;;;;4.97;1.83;;;0.60;99.90;;;;;;5055587;28;20675;-62
2023/03/12 00:09:55;;;;;;;1.43;1.33;;;0.70;99.90;;;;;;5055171;28;20206;-64
2023/03/12 00:12:20;;;;;;;5.10;1.97;;;0.70;99.90;;;;;;5055609;28;20227;-63
2023/03/12 00:14:46;;;;;;;2.87;1.33;;;0.70;99.90;;;;;;5056172;28;20245;-63
2023/03/12 00:17:11;;;;;;;4.43;1.93;;;0.60;99.90;;;;;;5053623;28;20208;-62
2023/03/12 00:19:37;;;;;;;4.03;1.60;;;0.60;99.90;;;;;;5056131;28;20191;-63
2023/03/12 00:22:02;;;;;;;4.03;1.40;;;0.60;99.90;;;;;;5055371;28;20212;-62
2023/03/12 00:24:28;;;;;;;2.13;1.00;;;0.60;99.90;;;;;;5054569;28;20229;-63
2023/03/12 00:26:53;;;;;;;4.87;1.70;;;0.60;99.90;;;;;;5057281;28;20287;-65
2023/03/12 00:29:19;;;;;;;3.53;2.10;;;0.60;99.90;;;;;;5056781;28;20202;-63
2023/03/12 00:31:44;;;;;;;3.47;1.37;;;0.60;99.90;;;;;;5057402;28;20198;-63
2023/03/12 00:34:10;;;;;;;6.63;1.60;;;0.60;99.90;;;;;;5056267;28;20230;-62
2023/03/12 00:36:35;;;;;;;2.83;1.80;;;0.60;99.90;;;;;;5053855;28;20196;-63
2023/03/12 00:39:01;;;;;;;5.57;1.80;;;0.70;99.90;;;;;;5057794;28;20273;-63
2023/03/12 00:41:27;;;;;;;3.03;1.67;;;0.70;99.90;;;;;;5056942;28;20692;-65
2023/03/12 00:43:53;;;;;;;5.30;1.57;;;0.70;99.90;;;;;;5055507;28;20965;-65
2023/03/12 00:46:19;;;;;;;2.97;1.53;;;0.70;99.90;;;;;;5056038;28;20195;-61
2023/03/12 00:48:45;;;;;;;4.10;1.73;;;0.70;99.90;;;;;;5055215;28;20213;-61
2023/03/12 00:51:11;;;;;;;2.73;1.70;;;0.70;99.90;;;;;;5054995;28;20274;-62
2023/03/12 00:53:37;;;;;;;4.90;1.33;;;0.70;99.90;;;;;;5054641;28;20896;-62
2023/03/12 00:56:03;;;;;;;2.80;1.87;;;0.80;99.90;;;;;;5054318;28;20210;-64
2023/03/12 00:58:29;;;;;;;2.00;1.47;;;0.90;99.90;;;;;;5055081;28;20667;-63
2023/03/12 01:00:54;;;;;;;4.70;1.97;;;0.90;99.90;;;;;;5055062;28;20208;-61
2023/03/12 01:03:20;;;;;;;2.00;1.47;;;1.00;99.90;;;;;;5054065;28;20257;-61
2023/03/12 01:05:46;;;;;;;3.07;1.40;;;1.00;99.90;;;;;;5055476;28;20202;-61
2023/03/12 01:08:11;;;;;;;9.10;2.40;;;1.10;99.90;;;;;;5055588;28;20694;-61
2023/03/12 01:10:41;;;;;;;3.17;1.50;;;1.20;99.90;;;;;;5055597;28;20390;-61
2023/03/12 01:13:06;;;;;;;5.50;1.80;;;1.20;99.90;;;;;;5053490;28;20215;-62
2023/03/12 01:15:32;;;;;;;5.03;2.23;;;1.20;99.90;;;;;;5050704;28;20649;-61
2023/03/12 01:17:57;;;;;;;2.70;1.70;;;1.30;99.90;;;;;;5055174;28;20212;-62
2023/03/12 01:20:23;;;;;;;4.93;2.00;;;1.30;99.90;;;;;;5052810;28;20222;-61
2023/03/12 01:22:49;;;;;;;4.57;1.47;;;1.40;99.90;;;;;;5055316;28;20704;-61
2023/03/12 01:25:15;;;;;;;3.07;1.83;;;1.40;99.90;;;;;;5056837;28;20235;-61
2023/03/12 01:27:40;;;;;;;1.73;1.30;;;1.30;99.90;;;;;;5059119;28;20205;-62
2023/03/12 01:30:06;;;;;;;2.50;1.53;;;1.20;99.90;;;;;;5058681;28;20362;-61
2023/03/12 01:32:32;;;;;;;6.80;1.87;;;1.20;99.90;;;;;;5058831;28;20204;-62
2023/03/12 01:34:59;;;;;;;3.37;1.67;;;1.10;99.90;;;;;;5058632;28;20200;-61
2023/03/12 01:37:25;;;;;;;3.83;1.80;;;1.00;99.90;;;;;;5058679;28;20663;-61
2023/03/12 01:39:50;;;;;;;1.97;1.80;;;1.00;99.90;;;;;;5058305;28;20977;-61
2023/03/12 01:42:16;;;;;;;7.93;1.83;;;1.00;99.90;;;;;;5059019;28;20300;-61
2023/03/12 01:45:00;;;;;;;3.97;2.10;;;1.10;99.90;;;;;;5058630;28;20223;-62
2023/03/12 01:47:30;;;;;;;1.77;1.13;;;1.20;99.90;;;;;;5054473;28;20217;-62
2023/03/12 01:49:56;;;;;;;2.43;1.57;;;1.20;99.90;;;;;;5058560;28;20214;-62
2023/03/12 01:52:27;;;;;;;4.63;2.17;;;1.30;99.90;;;;;;5058334;28;20562;-62
2023/03/12 01:55:10;;;;;;;3.57;2.53;;;1.30;99.90;;;;;;5056459;28;20242;-62
2023/03/12 01:57:46;;;;;;;2.57;2.10;;;1.30;99.90;;;;;;5058467;28;20218;-62
2023/03/12 02:00:16;;;;;;;2.43;1.77;;;1.30;99.90;;;;;;5053988;28;20684;-61
2023/03/12 02:02:43;;;;;;;5.07;2.60;;;1.30;99.90;;;;;;5058296;28;20211;-61
2023/03/12 02:05:25;;;;;;;2.13;1.67;;;1.30;99.90;;;;;;5058437;28;20279;-62
2023/03/12 02:07:51;;;;;;;3.13;1.93;;;1.30;99.90;;;;;;5058842;28;20200;-62
2023/03/12 02:10:17;;;;;;;2.03;1.83;;;1.30;99.90;;;;;;5058532;28;20937;-62
2023/03/12 02:12:43;;;;;;;6.30;1.87;;;1.30;99.90;;;;;;5058255;28;20248;-62
2023/03/12 02:15:09;;;;;;;3.23;1.80;;;1.30;99.90;;;;;;5058247;28;20203;-62
2023/03/12 02:17:35;;;;;;;6.03;1.93;;;1.30;99.90;;;;;;5057287;28;20318;-62
2023/03/12 02:20:19;;;;;;;4.50;1.70;;;1.30;99.90;;;;;;5058073;28;20196;-62
2023/03/12 02:22:56;;;;;;;3.60;2.00;;;1.20;99.90;;;;;;5056398;28;20264;-62
2023/03/12 02:25:35;;;;;;;4.30;1.90;;;1.20;99.90;;;;;;5054965;28;20269;-63
2023/03/12 02:28:05;;;;;;;4.37;1.80;;;1.20;99.90;;;;;;5057385;28;20277;-62
2023/03/12 02:30:32;;;;;;;4.70;1.50;;;1.20;99.90;;;;;;5057699;28;20210;-62
2023/03/12 02:33:03;;;;;;;3.50;1.73;;;1.20;99.90;;;;;;5057667;28;20602;-63
2023/03/12 02:35:29;;;;;;;2.13;1.70;;;1.10;99.90;;;;;;5054712;28;20702;-64
2023/03/12 02:37:55;;;;;;;2.17;2.00;;;1.00;99.90;;;;;;5058137;28;20210;-63
2023/03/12 02:40:32;;;;;;;2.37;2.00;;;0.90;99.90;;;;;;5057917;28;20196;-62
2023/03/12 02:42:58;;;;;;;3.23;1.73;;;0.80;99.90;;;;;;5036595;28;20204;-63
2023/03/12 02:45:25;;;;;;;4.07;2.40;;;0.80;99.90;;;;;;5055788;28;20201;-62
2023/03/12 02:47:50;;;;;;;1.90;1.80;;;0.70;99.90;;;;;;5057665;28;20297;-62
2023/03/12 02:50:16;;;;;;;5.00;2.77;;;0.70;99.90;;;;;;5057637;28;20294;-63
2023/03/12 02:52:41;;;;;;;2.90;2.20;;;0.60;99.90;;;;;;5057334;28;20219;-62
2023/03/12 02:55:07;;;;;;;2.43;1.47;;;0.50;99.90;;;;;;5055442;28;20204;-62
2023/03/12 02:57:36;;;;;;;4.87;2.17;;;0.50;99.90;;;;;;5057439;28;20211;-64
2023/03/12 03:00:05;;;;;;;8.47;2.67;;;0.50;99.90;;;;;;5057314;28;20674;-63
2023/03/12 03:02:30;;;;;;;3.20;2.20;;;0.40;99.90;;;;;;5057148;28;20572;-63
2023/03/12 03:04:55;;;;;;;6.07;2.97;;;0.40;99.90;;;;;;5057285;28;20193;-63
2023/03/12 03:07:21;;;;;;;5.20;2.17;;;0.30;99.90;;;;;;5055646;28;20607;-62
2023/03/12 03:09:46;;;;;;;2.47;2.00;;;0.30;99.90;;;;;;5057212;28;20258;-63
2023/03/12 03:12:12;;;;;;;3.60;2.03;;;0.30;99.90;;;;;;5057215;28;20225;-62
2023/03/12 03:14:37;;;;;;;7.60;2.00;;;0.20;99.90;;;;;;5056710;28;20209;-61
2023/03/12 03:17:03;;;;;;;3.67;2.00;;;0.20;99.90;;;;;;5057544;28;20199;-62
2023/03/12 03:19:29;;;;;;;2.73;1.67;;;0.20;99.90;;;;;;5056922;28;20202;-62
2023/03/12 03:21:54;;;;;;;2.23;1.63;;;0.20;99.90;;;;;;5055094;28;20784;-62
2023/03/12 03:24:20;;;;;;;3.73;2.37;;;0.10;99.90;;;;;;5056932;28;20255;-63
2023/03/12 03:26:45;;;;;;;2.50;2.30;;;0.10;99.90;;;;;;5056989;28;20231;-62
2023/03/12 03:29:11;;;;;;;2.27;2.07;;;0.10;99.90;;;;;;5057165;28;20202;-62
2023/03/12 03:31:36;;;;;;;2.67;2.03;;;0.00;99.90;;;;;;5058772;28;20191;-63
2023/03/12 03:34:02;;;;;;;2.73;2.03;;;0.00;99.90;;;;;;5054536;28;20226;-63
2023/03/12 03:36:27;;;;;;;3.53;1.90;;;0.00;99.90;;;;;;5057142;28;20899;-62
2023/03/12 03:38:53;;;;;;;2.80;2.03;;;0.00;99.90;;;;;;5056484;28;20270;-63
2023/03/12 03:41:20;;;;;;;4.23;2.17;;;0.00;99.90;;;;;;5057287;28;20611;-64
2023/03/12 03:43:46;;;;;;;2.30;1.67;;;0.00;99.90;;;;;;5056814;28;20724;-62
2023/03/12 03:46:12;;;;;;;3.30;2.17;;;0.00;99.90;;;;;;5056947;28;20295;-63
2023/03/12 03:48:38;;;;;;;3.13;1.90;;;0.00;99.90;;;;;;5054456;28;20860;-62
2023/03/12 03:51:06;;;;;;;4.47;2.40;;;0.00;99.90;;;;;;5055603;28;20281;-62
2023/03/12 03:53:31;;;;;;;3.17;2.10;;;0.00;99.90;;;;;;5056273;28;20227;-62
2023/03/12 03:55:57;;;;;;;3.60;1.83;;;-0.10;99.90;;;;;;5056785;28;20203;-63
2023/03/12 03:58:23;;;;;;;3.27;2.23;;;-0.10;99.90;;;;;;5056454;28;20198;-63
2023/03/12 04:00:49;;;;;;;3.13;1.93;;;-0.20;99.90;;;;;;5054181;28;20585;-63
2023/03/12 04:03:14;;;;;;;4.93;1.97;;;-0.20;99.90;;;;;;5056477;28;20266;-63
2023/03/12 04:05:44;;;;;;;4.33;2.20;;;-0.20;99.90;;;;;;5056068;28;20559;-62
2023/03/12 04:08:10;;;;;;;5.23;2.67;;;-0.20;99.90;;;;;;5056013;28;20301;-63
2023/03/12 04:10:36;;;;;;;5.17;2.80;;;-0.20;99.90;;;;;;5056035;28;20202;-63
2023/03/12 04:13:02;;;;;;;2.90;2.30;;;-0.30;99.90;;;;;;5054159;28;20229;-62
2023/03/12 04:15:27;;;;;;;4.50;2.27;;;-0.30;99.90;;;;;;5056015;28;20207;-63
2023/03/12 04:17:52;;;;;;;5.20;2.40;;;-0.20;99.90;;;;;;5056067;28;20294;-62
2023/03/12 04:20:18;;;;;;;3.10;2.80;;;-0.30;99.90;;;;;;5055786;28;20194;-62
2023/03/12 04:22:43;;;;;;;5.60;2.70;;;-0.30;99.90;;;;;;5055932;28;20234;-62
2023/03/12 04:25:10;;;;;;;4.13;2.87;;;-0.20;99.90;;;;;;5053982;28;20273;-62
2023/03/12 04:27:35;;;;;;;4.10;2.50;;;-0.20;99.90;;;;;;5055946;28;20216;-63
2023/03/12 04:30:01;;;;;;;5.57;3.57;;;-0.30;99.90;;;;;;5056263;28;20202;-63
2023/03/12 04:32:26;;;;;;;8.40;2.77;;;-0.30;99.90;;;;;;5055804;28;20309;-63
2023/03/12 04:34:52;;;;;;;5.43;3.67;;;-0.30;99.90;;;;;;5056220;28;20198;-63
2023/03/12 04:37:17;;;;;;;5.60;3.27;;;-0.30;99.90;;;;;;5056408;28;20278;-63
2023/03/12 04:39:44;;;;;;;6.30;4.20;;;-0.30;99.90;;;;;;5053933;28;20285;-63
2023/03/12 04:42:10;;;;;;;9.43;3.47;;;-0.30;99.90;;;;;;5055702;28;20905;-62
2023/03/12 04:44:36;;;;;;;3.63;3.33;;;-0.30;99.90;;;;;;5055875;28;20211;-63
2023/03/12 04:47:02;;;;;;;5.00;4.33;;;-0.30;99.90;;;;;;5056064;28;20195;-62
2023/03/12 04:49:27;;;;;;;5.00;4.00;;;-0.30;99.90;;;;;;5054081;28;20996;-63
2023/03/12 04:51:53;;;;;;;5.27;3.33;;;-0.40;99.90;;;;;;5055860;28;20210;-62
2023/03/12 04:54:19;;;;;;;6.50;3.73;;;-0.40;99.90;;;;;;5056269;28;20202;-62
2023/03/12 04:56:46;;;;;;;4.63;3.07;;;-0.40;99.90;;;;;;5056165;28;20544;-62
2023/03/12 04:59:11;;;;;;;3.90;3.50;;;-0.50;99.90;;;;;;5057736;28;20222;-62
2023/03/12 05:01:37;;;;;;;4.40;3.60;;;-0.50;99.90;;;;;;5059832;28;20672;-62
2023/03/12 05:04:03;;;;;;;3.87;3.20;;;-0.50;99.90;;;;;;5054741;28;20227;-64
2023/03/12 05:06:28;;;;;;;7.93;3.07;;;-0.50;99.90;;;;;;5058715;28;20219;-63
2023/03/12 05:08:54;;;;;;;7.63;3.30;;;-0.50;99.90;;;;;;5059202;28;20484;-62
2023/03/12 05:11:21;;;;;;;4.23;3.43;;;-0.50;99.90;;;;;;5059396;28;20214;-62
2023/03/12 05:13:47;;;;;;;7.80;3.57;;;-0.50;99.90;;;;;;5059008;28;20234;-63
2023/03/12 05:16:14;;;;;;;4.50;3.30;;;-0.50;99.90;;;;;;5057205;28;20207;-62
2023/03/12 05:18:41;;;;;;;3.73;3.00;;;-0.50;99.90;;;;;;5058885;28;20663;-63
2023/03/12 05:21:12;;;;;;;4.20;2.93;;;-0.50;99.90;;;;;;5058999;28;20362;-63
2023/03/12 05:23:38;;;;;;;2.60;2.40;;;-0.50;99.90;;;;;;5058081;28;20246;-62
2023/03/12 05:26:05;;;;;;;4.63;2.90;;;-0.50;99.90;;;;;;5058948;28;20208;-62
2023/03/12 05:28:31;;;;;;;2.60;2.40;;;-0.50;99.90;;;;;;5058768;28;20271;-63
2023/03/12 05:30:59;;;;;;;4.83;3.00;;;-0.50;99.90;;;;;;5058901;28;20210;-63
2023/03/12 05:33:26;;;;;;;4.97;2.70;;;-0.50;99.90;;;;;;5058446;28;20215;-62
2023/03/12 05:35:52;;;;;;;5.70;3.03;;;-0.50;99.90;;;;;;5058797;28;20353;-63
2023/03/12 05:38:18;;;;;;;5.80;3.07;;;-0.50;99.90;;;;;;5057228;28;20741;-65
2023/03/12 05:40:51;;;;;;;5.37;2.80;;;-0.50;99.90;;;;;;5058553;28;20206;-62
2023/03/12 05:43:16;;;;;;;8.33;3.40;;;-0.40;99.90;;;;;;5058650;28;20230;-62
2023/03/12 05:45:42;;;;;;;4.07;2.43;;;-0.40;99.90;;;;;;5058640;28;20208;-61
2023/03/12 05:48:07;;;;;;;4.83;2.90;;;-0.40;99.90;;;;;;5058588;28;20557;-61
2023/03/12 05:50:32;;;;;;;6.47;2.83;;;-0.40;99.90;;;;;;5056261;28;20256;-62
2023/03/12 05:52:58;;;;;;;3.37;2.60;;;-0.40;99.90;;;;;;5039938;28;20207;-62
2023/03/12 05:55:24;;;;;;;4.17;2.60;;;-0.30;99.90;;;;;;5058410;28;20195;-61
2023/03/12 05:57:49;;;;;;;4.60;2.80;;;-0.30;99.90;;;;;;5057976;28;20290;-63
2023/03/12 06:00:15;;;;;;;6.27;2.53;;;-0.40;99.90;;;;;;5058338;28;20237;-62
2023/03/12 06:02:42;;;;;;;3.80;3.13;;;-0.30;99.90;;;;;;5053553;28;20214;-62
2023/03/12 06:05:09;;;;;;;3.70;3.03;;;-0.30;99.90;;;;;;5054570;28;20195;-61
2023/03/12 06:07:35;;;;;;;5.67;2.70;;;-0.30;99.90;;;;;;5057834;28;20211;-62
2023/03/12 06:10:01;;;;;;;6.60;2.83;;;-0.30;99.90;;;;;;5057140;28;20195;-63
2023/03/12 06:12:26;;;;;;;7.17;2.90;;;-0.30;99.90;;;;;;5056249;28;20268;-61
2023/03/12 06:14:52;;;;;;;9.20;3.13;;;-0.20;99.90;;;;;;5053365;28;20272;-64
2023/03/12 06:17:18;;;;;;;4.50;2.30;;;-0.20;99.90;;;;;;5058116;28;20269;-61
2023/03/12 06:19:43;;;;;;;4.50;2.53;;;-0.30;99.90;;;;;;5057899;28;20299;-63
2023/03/12 06:22:09;;;;;;;4.33;2.50;;;-0.20;99.90;;;;;;5057541;28;20327;-63
2023/03/12 06:24:34;;;;;;;4.53;3.17;;;-0.20;99.90;;;;;;5057795;28;20228;-63
2023/03/12 06:27:00;;;;;;;5.57;2.87;;;-0.10;99.90;;;;;;5057818;28;20617;-62
2023/03/12 06:29:25;;;;;;;4.13;2.90;;;-0.10;99.90;;;;;;5056617;28;20326;-62
2023/03/12 06:31:51;;;;;;;4.03;2.70;;;0.00;99.90;;;;;;5057714;28;20202;-62
2023/03/12 06:34:17;;;;;;;4.33;3.07;;;0.10;99.90;;;;;;5057618;28;20221;-62
2023/03/12 06:36:42;;;;;;;2.63;2.43;;;0.10;99.90;;;;;;5057486;28;20239;-62
2023/03/12 06:39:08;;;;;;;3.40;2.60;;;0.20;99.90;;;;;;5057215;28;20194;-63
2023/03/12 06:41:35;;;;;;;3.93;3.10;;;0.30;99.90;;;;;;5057700;28;20204;-63
2023/03/12 06:44:04;;;;;;;4.53;2.50;;;0.40;99.90;;;;;;5055819;28;20689;-62
2023/03/12 06:46:30;;;;;;;3.40;2.13;;;0.40;99.90;;;;;;5059169;28;20444;-63
2023/03/12 06:48:56;;;;;;;6.03;2.90;;;0.50;99.90;;;;;;5063387;28;20203;-63
2023/03/12 06:51:21;;;;;;;4.87;3.00;;;0.60;99.90;;;;;;5060820;28;20265;-62
2023/03/12 06:53:47;;;;;;;4.43;2.93;;;0.60;99.90;;;;;;5057149;28;20251;-62
2023/03/12 06:56:14;;;;;;;4.40;2.60;;;0.70;99.90;;;;;;5055262;28;20211;-62
2023/03/12 06:58:40;;;;;;;5.47;2.27;;;0.80;99.90;;;;;;5057323;28;20202;-61
2023/03/12 07:01:06;;;;;;;5.33;3.03;;;0.80;99.90;;;;;;5057126;28;20626;-62
2023/03/12 07:03:32;;;;;;;2.93;2.63;;;0.90;99.90;;;;;;5056470;28;20213;-62
2023/03/12 07:05:58;;;;;;;2.67;2.47;;;1.00;99.90;;;;;;5055682;28;20206;-62
2023/03/12 07:08:24;;;;;;;5.83;2.83;;;1.10;99.90;;;;;;5051975;28;20548;-63
2023/03/12 07:10:50;;;;;;;7.73;3.37;;;1.20;99.90;;;;;;5055931;28;20257;-63
2023/03/12 07:13:15;;;;;;;7.40;2.33;;;1.30;99.90;;;;;;5056747;28;20219;-61
2023/03/12 07:15:41;;;;;;;6.10;2.87;;;1.40;99.90;;;;;;5056342;28;20213;-62
2023/03/12 07:18:09;;;;;;;5.03;2.87;;;1.50;99.90;;;;;;5056371;28;20255;-62
2023/03/12 07:20:37;;;;;;;4.80;2.97;;;1.50;99.90;;;;;;5055163;28;20220;-62
2023/03/12 07:23:03;;;;;;;4.87;2.90;;;1.50;99.90;;;;;;5056086;28;20291;-63
2023/03/12 07:25:28;;;;;;;3.03;2.47;;;1.50;99.90;;;;;;5056367;28;20530;-62
2023/03/12 07:27:54;;;;;;;4.17;2.83;;;1.50;99.90;;;;;;5054589;28;20204;-62
2023/03/12 07:30:20;;;;;;;9.57;2.70;;;1.50;99.90;;;;;;5056253;28;20222;-66
2023/03/12 07:32:45;;;;;;;6.20;3.67;;;1.60;99.90;;;;;;5055976;28;20318;-63
2023/03/12 07:35:11;;;;;;;3.73;3.03;;;1.50;99.90;;;;;;5056750;28;20262;-63
2023/03/12 07:37:36;;;;;;;5.60;2.93;;;1.50;99.90;;;;;;5056142;28;20666;-63
2023/03/12 07:40:06;;;;;;;3.67;3.10;;;1.50;99.90;;;;;;5056405;28;20665;-63
2023/03/12 07:42:31;;;;;;;6.43;2.57;;;1.50;99.90;;;;;;5052811;28;20212;-63
2023/03/12 07:44:57;;;;;;;5.33;3.07;;;1.60;99.90;;;;;;5056349;28;20202;-63
2023/03/12 07:47:22;;;;;;;3.73;2.97;;;1.60;99.90;;;;;;5055911;28;20296;-63
2023/03/12 07:49:48;;;;;;;5.43;2.77;;;1.70;99.90;;;;;;5055854;28;20212;-63
2023/03/12 07:52:14;;;;;;;5.40;3.07;;;1.80;99.90;;;;;;5053673;28;20200;-63
2023/03/12 07:54:39;;;;;;;5.40;2.83;;;1.90;99.90;;;;;;5055976;28;20208;-63
2023/03/12 07:57:05;;;;;;;2.80;2.27;;;2.00;99.90;;;;;;5055919;28;20261;-63
2023/03/12 07:59:31;;;;;;;2.77;2.13;;;2.10;99.90;;;;;;5055691;28;20198;-63
2023/03/12 08:01:57;;;;;;;3.47;2.33;;;2.10;99.90;;;;;;5055918;28;20208;-63
2023/03/12 08:04:22;;;;;;;4.77;3.13;;;2.30;99.90;;;;;;5056204;28;20202;-63
2023/03/12 08:06:48;;;;;;;3.37;2.13;;;2.50;99.90;;;;;;5054105;28;20257;-63
2023/03/12 08:09:14;;;;;;;3.77;2.80;;;2.50;99.90;;;;;;5056041;28;20197;-65
2023/03/12 08:11:39;;;;;;;5.53;3.00;;;2.50;99.90;;;;;;5055628;28;20203;-63
2023/03/12 08:14:04;;;;;;;5.27;2.40;;;2.40;99.90;;;;;;5055390;28;20752;-62
2023/03/12 08:16:30;;;;;;;11.80;3.30;;;2.40;99.90;;;;;;5055477;28;20205;-64
2023/03/12 08:18:56;;;;;;;4.03;2.77;;;2.40;99.90;;;;;;5055417;28;20197;-62
2023/03/12 08:21:22;;;;;;;6.77;3.30;;;2.60;99.90;;;;;;5055404;28;20262;-63
2023/03/12 08:23:48;;;;;;;5.63;2.93;;;2.60;99.90;;;;;;5055464;28;20279;-63
2023/03/12 08:26:13;;;;;;;4.87;2.70;;;2.80;99.90;;;;;;5056012;28;20196;-62
2023/03/12 08:28:39;;;;;;;3.97;2.47;;;2.90;99.90;;;;;;5055427;28;20193;-61
2023/03/12 08:31:05;;;;;;;3.63;2.70;;;2.90;99.90;;;;;;5055796;28;20619;-62
2023/03/12 08:33:30;;;;;;;3.37;2.47;;;3.00;99.90;;;;;;5054103;28;20263;-62
2023/03/12 08:35:56;;;;;;;7.10;3.03;;;3.20;99.90;;;;;;5059943;28;20209;-63
2023/03/12 08:38:21;;;;;;;3.20;2.47;;;3.40;99.90;;;;;;5059688;28;20189;-63
2023/03/12 08:40:54;;;;;;;3.53;2.17;;;3.50;99.90;;;;;;5059283;28;20218;-63
2023/03/12 08:43:20;;;;;;;4.50;2.37;;;3.60;99.90;;;;;;5055129;28;20193;-62
2023/03/12 08:45:45;;;;;;;6.00;2.60;;;3.70;99.90;;;;;;5059286;28;20267;-63
2023/03/12 08:48:11;;;;;;;8.67;2.60;;;4.00;99.90;;;;;;5060009;28;20209;-63
2023/03/12 08:50:36;;;;;;;4.53;2.40;;;4.10;99.90;;;;;;5059412;28;20202;-63
2023/03/12 08:53:02;;;;;;;4.67;1.87;;;4.20;99.90;;;;;;5059546;28;20822;-63
2023/03/12 08:55:27;;;;;;;6.73;1.77;;;4.40;99.90;;;;;;5057547;28;20579;-64
2023/03/12 08:57:54;;;;;;;3.67;2.53;;;4.70;99.90;;;;;;5059142;28;20668;-64
2023/03/12 09:00:20;;;;;;;1.60;1.20;;;4.70;99.90;;;;;;5062609;28;20198;-63
2023/03/12 09:02:46;;;;;;;3.47;2.00;;;4.50;99.90;;;;;;5068013;28;20200;-64
2023/03/12 09:05:13;;;;;;;2.50;2.00;;;4.10;99.90;;;;;;5065694;28;20205;-64
2023/03/12 09:07:38;;;;;;;3.77;2.33;;;4.00;99.90;;;;;;5065755;28;20208;-65
2023/03/12 09:10:05;;;;;;;7.10;2.30;;;4.00;99.90;;;;;;5059174;28;20206;-64
2023/03/12 09:12:31;;;;;;;2.67;2.47;;;4.00;99.90;;;;;;5059154;28;20271;-65
2023/03/12 09:14:56;;;;;;;2.40;1.90;;;3.90;99.90;;;;;;5062187;28;20201;-64
2023/03/12 09:17:22;;;;;;;1.80;1.67;;;3.90;99.90;;;;;;5063975;28;20214;-64
2023/03/12 09:19:47;;;;;;;4.70;2.27;;;4.00;99.90;;;;;;5066429;28;20193;-65
2023/03/12 09:22:13;;;;;;;2.07;1.70;;;4.10;99.90;;;;;;5064549;28;20293;-66
2023/03/12 09:24:39;;;;;;;5.47;2.63;;;4.40;99.90;;;;;;5066752;28;20237;-64
2023/03/12 09:27:04;;;;;;;3.10;1.33;;;4.60;99.90;;;;;;5066224;28;20215;-63
2023/03/12 09:29:30;;;;;;;3.00;1.40;;;4.90;99.90;;;;;;5065095;28;20332;-63
2023/03/12 09:31:56;;;;;;;3.40;1.10;;;4.90;99.90;;;;;;5066656;28;20189;-64
2023/03/12 09:34:21;;;;;;;1.70;0.90;;;4.90;99.90;;;;;;5064110;28;20216;-66
2023/03/12 09:36:47;;;;;;;3.23;1.27;;;4.90;99.90;;;;;;5065315;28;20209;-66
2023/03/12 09:39:13;;;;;;;2.53;1.00;;;4.90;99.90;;;;;;5067885;28;20202;-65
2023/03/12 09:41:42;;;;;;;2.53;1.40;;;4.90;99.90;;;;;;5064123;28;20688;-65
2023/03/12 09:44:31;;;;;;;2.47;1.50;;;4.90;99.90;;;;;;5058412;28;20202;-63
2023/03/12 09:47:19;;;;;;;5.60;1.43;;;5.00;99.90;;;;;;5056293;28;20669;-64
2023/03/12 09:49:50;;;;;;;2.27;0.93;;;5.10;99.90;;;;;;5055388;28;20223;-65
2023/03/12 09:52:23;;;;;;;2.07;1.03;;;5.20;99.90;;;;;;5058584;28;20256;-63
2023/03/12 09:55:13;;;;;;;2.93;1.07;;;5.10;99.90;;;;;;5054083;28;20289;-63
2023/03/12 09:57:39;;;;;;;7.43;1.20;;;5.20;99.90;;;;;;5060312;28;20703;-63
2023/03/12 10:00:11;;;;;;;3.17;1.97;;;5.50;99.90;;;;;;5068736;28;20201;-65
2023/03/12 10:02:58;;;;;;;5.20;1.33;;;5.70;99.90;;;;;;5061755;28;20198;-66
2023/03/12 10:05:46;;;;;;;2.93;1.10;;;6.20;99.90;;;;;;5065805;28;20779;-65
2023/03/12 10:08:46;;;;;;;3.43;1.10;;;6.60;99.40;;;;;;5064287;28;20229;-64
2023/03/12 10:11:26;;;;;;;4.70;1.50;;;7.00;98.50;;;;;;5064951;28;20778;-65
2023/03/12 10:14:29;;;;;;;1.87;1.40;;;6.80;98.30;;;;;;5057338;28;20214;-65
2023/03/12 10:17:25;;;;;;;3.67;1.10;;;6.90;97.40;;;;;;5040516;28;20583;-65
2023/03/12 10:20:03;;;;;;;1.60;1.17;;;6.80;97.40;;;;;;5053746;28;20209;-68
2023/03/12 10:23:02;;;;;;;6.37;2.03;;;6.90;97.70;;;;;;5044126;28;20949;-84
2023/03/12 10:25:35;;;;;;;4.40;1.20;;;7.00;98.10;;;;;;5061624;28;20225;-65
2023/03/12 10:28:31;;;;;;;1.23;1.20;;;7.10;97.00;;;;;;5056004;28;20198;-63
2023/03/12 10:31:01;;;;;;;3.13;1.13;;;7.00;96.50;;;;;;5059683;28;20202;-64
2023/03/12 10:33:55;;;;;;;2.47;1.47;;;7.20;96.80;;;;;;5053008;28;20917;-65
2023/03/12 10:36:28;;;;;;;2.53;0.97;;;7.10;94.70;;;;;;5052021;28;20206;-65
2023/03/12 10:38:54;;;;;;;1.67;1.10;;;7.20;94.20;;;;;;5055655;28;20197;-64
2023/03/12 10:41:26;;;;;;;3.30;1.00;;;7.10;94.30;;;;;;5052185;28;20208;-68
2023/03/12 10:43:55;;;;;;;1.33;1.07;;;7.30;94.50;;;;;;5057194;28;20684;-63
2023/03/12 10:46:50;;;;;;;1.30;1.20;;;7.50;94.20;;;;;;5055612;28;20194;-63
2023/03/12 10:49:21;;;;;;;3.03;0.90;;;7.20;93.00;;;;;;5055221;28;20225;-64
2023/03/12 10:51:55;;;;;;;2.00;1.00;;;7.30;93.50;;;;;;5055844;28;20212;-62
2023/03/12 10:54:26;;;;;;;2.87;1.00;;;7.30;93.60;;;;;;5054942;28;20740;-63
2023/03/12 10:56:51;;;;;;;1.83;0.93;;;7.20;93.40;;;;;;5053862;28;20284;-64
2023/03/12 10:59:22;;;;;;;1.30;1.03;;;7.40;93.50;;;;;;5054209;28;20284;-63
2023/03/12 11:01:50;;;;;;;3.73;1.80;;;7.60;92.40;;;;;;5056152;28;20229;-61
2023/03/12 11:04:20;;;;;;;4.27;1.93;;;7.80;91.70;;;;;;5054409;28;20205;-62
2023/03/12 11:07:14;;;;;;;6.03;2.47;;;7.90;90.80;;;;;;5048086;28;20242;-63
2023/03/12 11:09:40;;;;;;;2.80;2.50;;;7.80;90.60;;;;;;5053560;28;20202;-62
2023/03/12 11:12:26;;;;;;;10.80;4.10;;;8.10;90.40;;;;;;5056610;28;20202;-62
2023/03/12 11:14:52;;;;;;;3.13;1.97;;;8.20;89.50;;;;;;5053721;28;20209;-64
2023/03/12 11:17:24;;;;;;;6.07;1.97;;;7.90;90.20;;;;;;5056372;28;20202;-62
2023/03/12 11:19:49;;;;;;;4.90;1.73;;;8.00;87.30;;;;;;5055888;28;20206;-59
2023/03/12 11:22:28;;;;;;;4.27;2.67;;;7.70;87.70;;;;;;5055906;28;20230;-63
2023/03/12 11:24:59;;;;;;;7.17;3.10;;;7.80;87.70;;;;;;5054429;28;20665;-63
2023/03/12 11:27:40;;;;;;;5.93;2.83;;;7.80;88.30;;;;;;5054288;28;20596;-64
2023/03/12 11:30:12;;;;;;;2.07;1.87;;;8.30;88.30;;;;;;5056473;28;20395;-63
2023/03/12 11:32:43;;;;;;;2.93;1.60;;;8.40;85.70;;;;;;5056298;28;20233;-62
2023/03/12 11:35:11;;;;;;;4.13;2.63;;;8.50;86.50;;;;;;5055489;28;20700;-65
2023/03/12 11:37:36;;;;;;;1.57;1.47;;;8.20;88.60;;;;;;5055309;28;20236;-64
2023/03/12 11:40:33;;;;;;;7.93;3.40;;;8.20;87.50;;;;;;5055333;28;20206;-62
2023/03/12 11:43:18;;;;;;;2.77;1.57;;;8.50;87.90;;;;;;5054479;28;20207;-66
2023/03/12 11:46:25;;;;;;;2.43;1.50;;;8.80;86.20;;;;;;5052843;28;20224;-66
2023/03/12 11:49:20;;;;;;;3.83;2.10;;;9.10;86.20;;;;;;5053707;28;20208;-65
2023/03/12 11:51:55;;;;;;;2.93;1.83;;;8.80;79.70;;;;;;5052778;28;20205;-66
2023/03/12 11:54:36;;;;;;;5.93;2.10;;;8.60;81.90;;;;;;5053152;28;20209;-64
2023/03/12 11:57:22;;;;;;;3.33;2.90;;;8.30;80.90;;;;;;5053418;28;20192;-66
2023/03/12 12:00:13;;;;;;;2.97;2.17;;;8.40;81.10;;;;;;5054198;28;20259;-66
2023/03/12 12:02:57;;;;;;;5.40;2.90;;;8.50;75.10;;;;;;5051997;28;20577;-65
2023/03/12 12:05:49;;;;;;;4.43;2.10;;;8.40;74.40;;;;;;5035490;28;20577;-66
2023/03/12 12:08:41;;;;;;;2.00;1.77;;;8.50;74.30;;;;;;5052381;28;20285;-65
2023/03/12 12:11:21;;;;;;;3.53;2.10;;;8.70;73.30;;;;;;5052086;28;20829;-74
2023/03/12 12:13:51;;;;;;;1.80;1.70;;;8.70;69.80;;;;;;5051708;28;20758;-66
2023/03/12 12:16:43;;;;;;;3.10;1.53;;;8.70;68.90;;;;;;5054484;28;20200;-66
2023/03/12 12:19:22;;;;;;;1.83;1.50;;;8.70;66.30;;;;;;5054186;28;20223;-66
2023/03/12 12:22:28;;;;;;;4.03;2.27;;;8.80;67.70;;;;;;5053793;28;20201;-66
2023/03/12 12:25:11;;;;;;;4.07;1.90;;;9.30;72.30;;;;;;5051571;28;20514;-66
2023/03/12 12:27:53;;;;;;;2.77;1.87;;;9.50;71.90;;;;;;5052811;28;20205;-66
2023/03/12 12:30:51;;;;;;;3.93;2.03;;;9.70;71.10;;;;;;5036086;28;20281;-65
2023/03/12 12:33:17;;;;;;;2.13;1.93;;;9.30;69.00;;;;;;5052236;28;20209;-65
2023/03/12 12:35:44;;;;;;;2.80;1.80;;;9.20;65.80;;;;;;5054695;28;20194;-66
2023/03/12 12:38:31;;;;;;;5.73;2.00;;;9.20;64.90;;;;;;5054222;28;20553;-65
2023/03/12 12:41:12;;;;;;;2.93;2.63;;;9.30;61.70;;;;;;5053265;28;20787;-65
2023/03/12 12:43:41;;;;;;;2.90;2.00;;;9.00;62.90;;;;;;5054526;28;20201;-66
2023/03/12 12:46:15;;;;;;;4.50;2.87;;;8.80;62.90;;;;;;5053327;28;20198;-66
2023/03/12 12:48:45;;;;;;;6.20;2.47;;;8.60;64.50;;;;;;5052675;28;20202;-66
2023/03/12 12:51:11;;;;;;;2.37;2.00;;;8.80;64.90;;;;;;5055292;28;20728;-67
2023/03/12 12:54:00;;;;;;;2.37;2.17;;;9.00;63.30;;;;;;5055096;28;20234;-67
2023/03/12 12:56:50;;;;;;;4.33;2.10;;;8.90;58.70;;;;;;5052603;28;20190;-67
2023/03/12 12:59:30;;;;;;;1.73;1.60;;;8.90;56.50;;;;;;5052298;28;20209;-66
2023/03/12 13:01:59;;;;;;;2.10;1.40;;;8.70;53.60;;;;;;5052966;28;20682;-67
2023/03/12 13:04:34;;;;;;;2.43;1.60;;;8.20;53.40;;;;;;5051716;28;20222;-66
2023/03/12 13:07:22;;;;;;;2.47;1.50;;;7.90;54.80;;;;;;5054402;28;20554;-66